sensor_id;sensor_type;location;lat;lon;timestamp;temperature;humidity
52889;DHT22;41413;52.770;6.892;2023-04-01T00:01:24;9.60;99.90
52889;DHT22;41413;52.770;6.892;2023-04-01T00:03:51;9.60;99.90
52889;DHT22;41413;52.770;6.892;2023-04-01T00:06:18;9.60;99.90
52889;DHT22;41413;52.770;6.892;2023-04-01T00:08:45;9.60;99.90
52889;DHT22;41413;52.770;6.892;2023-04-01T00:11:12;9.60;99.90
52889;DHT22;41413;52.770;6.892;2023-04-01T00:13:39;9.50;99.90
52889;DHT22;41413;52.770;6.892;2023-04-01T00:16:07;9.50;99.90
52889;DHT22;41413;52.770;6.892;2023-04-01T00:18:47;9.50;99.90
52889;DHT22;41413;52.770;6.892;2023-04-01T00:21:14;9.50;99.90
52889;DHT22;41413;52.770;6.892;2023-04-01T00:23:41;9.50;99.90
52889;DHT22;41413;52.770;6.892;2023-04-01T00:26:08;9.50;99.90
52889;DHT22;41413;52.770;6.892;2023-04-01T00:28:35;9.50;99.90
52889;DHT22;41413;52.770;6.892;2023-04-01T00:31:09;9.50;99.90
52889;DHT22;41413;52.770;6.892;2023-04-01T00:33:37;9.50;99.90
52889;DHT22;41413;52.770;6.892;2023-04-01T00:36:12;9.50;99.90
52889;DHT22;41413;52.770;6.892;2023-04-01T00:38:40;9.50;99.90
52889;DHT22;41413;52.770;6.892;2023-04-01T00:41:09;9.50;99.90
52889;DHT22;41413;52.770;6.892;2023-04-01T00:43:41;9.50;99.90
52889;DHT22;41413;52.770;6.892;2023-04-01T00:46:08;9.50;99.90
52889;DHT22;41413;52.770;6.892;2023-04-01T00:48:44;9.50;99.90
52889;DHT22;41413;52.770;6.892;2023-04-01T00:51:18;9.50;99.90
52889;DHT22;41413;52.770;6.892;2023-04-01T00:53:49;9.50;99.90
52889;DHT22;41413;52.770;6.892;2023-04-01T00:56:20;9.50;99.90
52889;DHT22;41413;52.770;6.892;2023-04-01T00:58:55;9.50;99.90
52889;DHT22;41413;52.770;6.892;2023-04-01T01:01:24;9.40;99.90
52889;DHT22;41413;52.770;6.892;2023-04-01T01:03:52;9.40;99.90
52889;DHT22;41413;52.770;6.892;2023-04-01T01:06:48;9.40;99.90
52889;DHT22;41413;52.770;6.892;2023-04-01T01:26:07;9.50;99.90
52889;DHT22;41413;52.770;6.892;2023-04-01T01:31:31;9.40;99.90
52889;DHT22;41413;52.770;6.892;2023-04-01T01:36:29;9.50;99.90
52889;DHT22;41413;52.770;6.892;2023-04-01T01:38:58;9.40;99.90
52889;DHT22;41413;52.770;6.892;2023-04-01T01:41:26;9.50;99.90
52889;DHT22;41413;52.770;6.892;2023-04-01T01:43:54;9.50;99.90
52889;DHT22;41413;52.770;6.892;2023-04-01T01:46:24;9.50;99.90
52889;DHT22;41413;52.770;6.892;2023-04-01T01:48:53;9.50;99.90
52889;DHT22;41413;52.770;6.892;2023-04-01T01:51:21;9.50;99.90
52889;DHT22;41413;52.770;6.892;2023-04-01T01:53:49;9.50;99.90
52889;DHT22;41413;52.770;6.892;2023-04-01T01:56:17;9.50;99.90
52889;DHT22;41413;52.770;6.892;2023-04-01T01:58:47;9.40;99.90
52889;DHT22;41413;52.770;6.892;2023-04-01T02:01:18;9.40;99.90
52889;DHT22;41413;52.770;6.892;2023-04-01T02:03:46;9.40;99.90
52889;DHT22;41413;52.770;6.892;2023-04-01T02:06:17;9.40;99.90
52889;DHT22;41413;52.770;6.892;2023-04-01T02:11:16;9.40;99.90
52889;DHT22;41413;52.770;6.892;2023-04-01T02:13:55;9.40;99.90
52889;DHT22;41413;52.770;6.892;2023-04-01T02:16:31;9.40;99.90
52889;DHT22;41413;52.770;6.892;2023-04-01T02:18:59;9.40;99.90
52889;DHT22;41413;52.770;6.892;2023-04-01T02:21:31;9.40;99.90
52889;DHT22;41413;52.770;6.892;2023-04-01T02:24:01;9.40;99.90
52889;DHT22;41413;52.770;6.892;2023-04-01T02:26:29;9.30;99.90
52889;DHT22;41413;52.770;6.892;2023-04-01T02:28:57;9.30;99.90
52889;DHT22;41413;52.770;6.892;2023-04-01T02:31:25;9.30;99.90
52889;DHT22;41413;52.770;6.892;2023-04-01T02:33:54;9.40;99.90
52889;DHT22;41413;52.770;6.892;2023-04-01T02:36:20;9.30;99.90
52889;DHT22;41413;52.770;6.892;2023-04-01T02:38:47;9.40;99.90
52889;DHT22;41413;52.770;6.892;2023-04-01T02:41:15;9.40;99.90
52889;DHT22;41413;52.770;6.892;2023-04-01T02:43:42;9.40;99.90
52889;DHT22;41413;52.770;6.892;2023-04-01T02:46:09;9.30;99.90
52889;DHT22;41413;52.770;6.892;2023-04-01T02:48:36;9.30;99.90
52889;DHT22;41413;52.770;6.892;2023-04-01T02:51:03;9.30;99.90
52889;DHT22;41413;52.770;6.892;2023-04-01T02:53:30;9.40;99.90
52889;DHT22;41413;52.770;6.892;2023-04-01T02:55:56;9.40;99.90
52889;DHT22;41413;52.770;6.892;2023-04-01T02:58:23;9.40;99.90
52889;DHT22;41413;52.770;6.892;2023-04-01T03:00:50;9.40;99.90
52889;DHT22;41413;52.770;6.892;2023-04-01T03:03:17;9.30;99.90
52889;DHT22;41413;52.770;6.892;2023-04-01T03:05:44;9.30;99.90
52889;DHT22;41413;52.770;6.892;2023-04-01T03:08:11;9.40;99.90
52889;DHT22;41413;52.770;6.892;2023-04-01T03:10:38;9.40;99.90
52889;DHT22;41413;52.770;6.892;2023-04-01T03:13:05;9.30;99.90
52889;DHT22;41413;52.770;6.892;2023-04-01T03:15:32;9.30;99.90
52889;DHT22;41413;52.770;6.892;2023-04-01T03:17:59;9.40;99.90
52889;DHT22;41413;52.770;6.892;2023-04-01T03:20:26;9.30;99.90
52889;DHT22;41413;52.770;6.892;2023-04-01T03:22:56;9.40;99.90
52889;DHT22;41413;52.770;6.892;2023-04-01T03:25:23;9.40;99.90
52889;DHT22;41413;52.770;6.892;2023-04-01T03:27:49;9.40;99.90
52889;DHT22;41413;52.770;6.892;2023-04-01T03:30:16;9.40;99.90
52889;DHT22;41413;52.770;6.892;2023-04-01T03:32:43;9.40;99.90
52889;DHT22;41413;52.770;6.892;2023-04-01T03:35:09;9.40;99.90
52889;DHT22;41413;52.770;6.892;2023-04-01T03:37:37;9.40;99.90
52889;DHT22;41413;52.770;6.892;2023-04-01T03:40:04;9.40;99.90
52889;DHT22;41413;52.770;6.892;2023-04-01T03:42:31;9.40;99.90
52889;DHT22;41413;52.770;6.892;2023-04-01T03:44:58;9.40;99.90
52889;DHT22;41413;52.770;6.892;2023-04-01T03:47:25;9.40;99.90
52889;DHT22;41413;52.770;6.892;2023-04-01T03:49:52;9.40;99.90
52889;DHT22;41413;52.770;6.892;2023-04-01T03:52:19;9.40;99.90
52889;DHT22;41413;52.770;6.892;2023-04-01T03:54:45;9.40;99.90
52889;DHT22;41413;52.770;6.892;2023-04-01T03:57:12;9.40;99.90
52889;DHT22;41413;52.770;6.892;2023-04-01T03:59:39;9.40;99.90
52889;DHT22;41413;52.770;6.892;2023-04-01T04:02:06;9.40;99.90
52889;DHT22;41413;52.770;6.892;2023-04-01T04:04:33;9.40;99.90
52889;DHT22;41413;52.770;6.892;2023-04-01T04:07:00;9.40;99.90
52889;DHT22;41413;52.770;6.892;2023-04-01T04:09:27;9.40;99.90
52889;DHT22;41413;52.770;6.892;2023-04-01T04:11:53;9.40;99.90
52889;DHT22;41413;52.770;6.892;2023-04-01T04:14:20;9.40;99.90
52889;DHT22;41413;52.770;6.892;2023-04-01T04:16:47;9.40;99.90
52889;DHT22;41413;52.770;6.892;2023-04-01T04:19:13;9.40;99.90
52889;DHT22;41413;52.770;6.892;2023-04-01T04:21:41;9.40;99.90
52889;DHT22;41413;52.770;6.892;2023-04-01T04:24:09;9.40;99.90
52889;DHT22;41413;52.770;6.892;2023-04-01T04:26:36;9.30;99.90
52889;DHT22;41413;52.770;6.892;2023-04-01T04:29:03;9.40;99.90
52889;DHT22;41413;52.770;6.892;2023-04-01T04:31:30;9.40;99.90
52889;DHT22;41413;52.770;6.892;2023-04-01T04:33:58;9.40;99.90
52889;DHT22;41413;52.770;6.892;2023-04-01T04:36:25;9.40;99.90
52889;DHT22;41413;52.770;6.892;2023-04-01T04:38:52;9.40;99.90
52889;DHT22;41413;52.770;6.892;2023-04-01T04:41:19;9.40;99.90
52889;DHT22;41413;52.770;6.892;2023-04-01T04:43:50;9.40;99.90
52889;DHT22;41413;52.770;6.892;2023-04-01T04:46:18;9.40;99.90
52889;DHT22;41413;52.770;6.892;2023-04-01T04:48:45;9.40;99.90
52889;DHT22;41413;52.770;6.892;2023-04-01T04:51:16;9.40;99.90
52889;DHT22;41413;52.770;6.892;2023-04-01T04:53:44;9.40;99.90
52889;DHT22;41413;52.770;6.892;2023-04-01T04:56:11;9.40;99.90
52889;DHT22;41413;52.770;6.892;2023-04-01T04:58:39;9.40;99.90
52889;DHT22;41413;52.770;6.892;2023-04-01T05:01:08;9.40;99.90
52889;DHT22;41413;52.770;6.892;2023-04-01T05:03:35;9.40;99.90
52889;DHT22;41413;52.770;6.892;2023-04-01T05:06:02;9.40;99.90
52889;DHT22;41413;52.770;6.892;2023-04-01T05:08:29;9.40;99.90
52889;DHT22;41413;52.770;6.892;2023-04-01T05:10:56;9.40;99.90
52889;DHT22;41413;52.770;6.892;2023-04-01T05:13:23;9.50;99.90
52889;DHT22;41413;52.770;6.892;2023-04-01T05:15:49;9.50;99.90
52889;DHT22;41413;52.770;6.892;2023-04-01T05:18:17;9.40;99.90
52889;DHT22;41413;52.770;6.892;2023-04-01T05:20:52;9.50;99.90
52889;DHT22;41413;52.770;6.892;2023-04-01T05:23:20;9.50;99.90
52889;DHT22;41413;52.770;6.892;2023-04-01T05:25:48;9.50;99.90
52889;DHT22;41413;52.770;6.892;2023-04-01T05:28:15;9.50;99.90
52889;DHT22;41413;52.770;6.892;2023-04-01T05:30:43;9.50;99.90
52889;DHT22;41413;52.770;6.892;2023-04-01T05:33:12;9.50;99.90
52889;DHT22;41413;52.770;6.892;2023-04-01T05:35:39;9.50;99.90
52889;DHT22;41413;52.770;6.892;2023-04-01T05:38:07;9.50;99.90
52889;DHT22;41413;52.770;6.892;2023-04-01T05:40:34;9.50;99.90
52889;DHT22;41413;52.770;6.892;2023-04-01T05:43:01;9.50;99.90
52889;DHT22;41413;52.770;6.892;2023-04-01T05:45:28;9.50;99.90
52889;DHT22;41413;52.770;6.892;2023-04-01T05:47:54;9.50;99.90
52889;DHT22;41413;52.770;6.892;2023-04-01T05:50:21;9.50;99.90
52889;DHT22;41413;52.770;6.892;2023-04-01T05:52:48;9.50;99.90
52889;DHT22;41413;52.770;6.892;2023-04-01T05:55:14;9.50;99.90
52889;DHT22;41413;52.770;6.892;2023-04-01T05:57:41;9.50;99.90
52889;DHT22;41413;52.770;6.892;2023-04-01T06:00:08;9.50;99.90
52889;DHT22;41413;52.770;6.892;2023-04-01T06:02:35;9.50;99.90
52889;DHT22;41413;52.770;6.892;2023-04-01T06:05:24;9.60;99.90
52889;DHT22;41413;52.770;6.892;2023-04-01T06:07:59;9.60;99.90
52889;DHT22;41413;52.770;6.892;2023-04-01T06:11:05;9.60;99.90
52889;DHT22;41413;52.770;6.892;2023-04-01T06:14:06;9.60;99.90
52889;DHT22;41413;52.770;6.892;2023-04-01T06:16:54;9.60;99.90
52889;DHT22;41413;52.770;6.892;2023-04-01T06:41:12;9.70;99.90
52889;DHT22;41413;52.770;6.892;2023-04-01T06:44:10;9.80;99.90
52889;DHT22;41413;52.770;6.892;2023-04-01T06:50:01;9.80;99.90
52889;DHT22;41413;52.770;6.892;2023-04-01T06:52:52;9.80;99.90
52889;DHT22;41413;52.770;6.892;2023-04-01T06:55:41;9.80;99.90
52889;DHT22;41413;52.770;6.892;2023-04-01T06:58:23;9.80;99.90
52889;DHT22;41413;52.770;6.892;2023-04-01T07:00:54;9.90;99.90
52889;DHT22;41413;52.770;6.892;2023-04-01T07:06:30;9.90;99.90
52889;DHT22;41413;52.770;6.892;2023-04-01T07:09:00;9.90;99.90
52889;DHT22;41413;52.770;6.892;2023-04-01T07:11:34;10.00;99.90
52889;DHT22;41413;52.770;6.892;2023-04-01T07:14:06;9.90;99.90
52889;DHT22;41413;52.770;6.892;2023-04-01T07:16:45;10.00;99.90
52889;DHT22;41413;52.770;6.892;2023-04-01T07:19:29;10.00;99.90
52889;DHT22;41413;52.770;6.892;2023-04-01T07:22:29;10.00;99.90
52889;DHT22;41413;52.770;6.892;2023-04-01T07:25:03;10.10;99.90
52889;DHT22;41413;52.770;6.892;2023-04-01T07:27:32;10.00;99.90
52889;DHT22;41413;52.770;6.892;2023-04-01T07:30:01;10.10;99.90
52889;DHT22;41413;52.770;6.892;2023-04-01T07:32:47;10.10;99.90
52889;DHT22;41413;52.770;6.892;2023-04-01T07:40:59;10.00;99.90
52889;DHT22;41413;52.770;6.892;2023-04-01T07:52:01;10.10;99.90
52889;DHT22;41413;52.770;6.892;2023-04-01T07:55:00;10.10;99.90
52889;DHT22;41413;52.770;6.892;2023-04-01T07:57:41;10.10;99.90
52889;DHT22;41413;52.770;6.892;2023-04-01T08:00:22;10.10;99.90
52889;DHT22;41413;52.770;6.892;2023-04-01T08:03:10;10.10;99.90
52889;DHT22;41413;52.770;6.892;2023-04-01T08:05:54;10.20;99.90
52889;DHT22;41413;52.770;6.892;2023-04-01T08:17:02;10.30;99.90
52889;DHT22;41413;52.770;6.892;2023-04-01T08:22:44;10.30;99.90
52889;DHT22;41413;52.770;6.892;2023-04-01T08:25:22;10.30;99.90
52889;DHT22;41413;52.770;6.892;2023-04-01T08:27:59;10.30;99.90
52889;DHT22;41413;52.770;6.892;2023-04-01T08:30:41;10.40;99.90
52889;DHT22;41413;52.770;6.892;2023-04-01T08:33:17;10.40;99.90
52889;DHT22;41413;52.770;6.892;2023-04-01T08:38:39;10.50;99.90
52889;DHT22;41413;52.770;6.892;2023-04-01T08:44:55;10.50;99.90
52889;DHT22;41413;52.770;6.892;2023-04-01T08:58:47;11.10;99.90
52889;DHT22;41413;52.770;6.892;2023-04-01T09:02:16;11.00;99.90
52889;DHT22;41413;52.770;6.892;2023-04-01T09:07:54;10.90;99.90
52889;DHT22;41413;52.770;6.892;2023-04-01T09:10:34;10.90;99.90
52889;DHT22;41413;52.770;6.892;2023-04-01T09:13:18;10.90;99.90
52889;DHT22;41413;52.770;6.892;2023-04-01T09:16:03;10.90;99.90
52889;DHT22;41413;52.770;6.892;2023-04-01T09:27:39;10.80;99.90
52889;DHT22;41413;52.770;6.892;2023-04-01T09:30:32;10.70;99.90
52889;DHT22;41413;52.770;6.892;2023-04-01T09:38:23;10.80;99.90
52889;DHT22;41413;52.770;6.892;2023-04-01T09:41:15;10.80;99.90
52889;DHT22;41413;52.770;6.892;2023-04-01T09:44:17;10.90;99.90
52889;DHT22;41413;52.770;6.892;2023-04-01T09:46:56;10.90;99.90
52889;DHT22;41413;52.770;6.892;2023-04-01T09:49:50;11.00;99.90
52889;DHT22;41413;52.770;6.892;2023-04-01T09:55:46;11.00;99.90
52889;DHT22;41413;52.770;6.892;2023-04-01T09:58:49;11.00;99.90
52889;DHT22;41413;52.770;6.892;2023-04-01T10:15:34;11.20;99.90
52889;DHT22;41413;52.770;6.892;2023-04-01T10:21:06;11.40;99.90
52889;DHT22;41413;52.770;6.892;2023-04-01T10:24:08;11.40;99.90
52889;DHT22;41413;52.770;6.892;2023-04-01T10:39:00;11.70;99.90
52889;DHT22;41413;52.770;6.892;2023-04-01T10:41:48;11.80;99.90
52889;DHT22;41413;52.770;6.892;2023-04-01T10:58:59;11.80;99.90
52889;DHT22;41413;52.770;6.892;2023-04-01T11:21:46;11.90;99.90
52889;DHT22;41413;52.770;6.892;2023-04-01T11:33:38;12.50;99.90
52889;DHT22;41413;52.770;6.892;2023-04-01T11:39:39;12.80;99.90
52889;DHT22;41413;52.770;6.892;2023-04-01T11:42:24;12.80;99.90
52889;DHT22;41413;52.770;6.892;2023-04-01T11:45:15;12.90;99.90
52889;DHT22;41413;52.770;6.892;2023-04-01T11:48:50;12.70;99.90
52889;DHT22;41413;52.770;6.892;2023-04-01T11:53:50;12.40;99.90
52889;DHT22;41413;52.770;6.892;2023-04-01T11:56:58;12.10;99.90
52889;DHT22;41413;52.770;6.892;2023-04-01T12:02:11;11.80;99.90
52889;DHT22;41413;52.770;6.892;2023-04-01T12:08:00;11.60;99.90
52889;DHT22;41413;52.770;6.892;2023-04-01T12:13:22;11.50;99.90
52889;DHT22;41413;52.770;6.892;2023-04-01T12:16:14;11.40;99.90
52889;DHT22;41413;52.770;6.892;2023-04-01T12:36:05;11.10;99.90
52889;DHT22;41413;52.770;6.892;2023-04-01T12:41:41;11.10;99.90
52889;DHT22;41413;52.770;6.892;2023-04-01T12:44:37;11.00;99.90
52889;DHT22;41413;52.770;6.892;2023-04-01T12:47:23;11.00;99.90
52889;DHT22;41413;52.770;6.892;2023-04-01T12:55:43;10.90;99.90
52889;DHT22;41413;52.770;6.892;2023-04-01T13:01:27;10.90;99.90
52889;DHT22;41413;52.770;6.892;2023-04-01T13:09:32;10.90;99.90
52889;DHT22;41413;52.770;6.892;2023-04-01T13:12:29;10.80;99.90
52889;DHT22;41413;52.770;6.892;2023-04-01T13:20:44;10.70;99.90
52889;DHT22;41413;52.770;6.892;2023-04-01T13:31:57;10.40;99.90
52889;DHT22;41413;52.770;6.892;2023-04-01T13:40:34;10.40;99.90
52889;DHT22;41413;52.770;6.892;2023-04-01T13:43:30;10.20;99.90
52889;DHT22;41413;52.770;6.892;2023-04-01T13:51:56;10.20;99.90
52889;DHT22;41413;52.770;6.892;2023-04-01T14:01:04;10.40;99.90
52889;DHT22;41413;52.770;6.892;2023-04-01T14:03:50;10.50;99.90
52889;DHT22;41413;52.770;6.892;2023-04-01T14:12:00;10.40;99.90
52889;DHT22;41413;52.770;6.892;2023-04-01T14:28:42;10.60;99.90
52889;DHT22;41413;52.770;6.892;2023-04-01T14:34:38;10.50;99.90
52889;DHT22;41413;52.770;6.892;2023-04-01T14:48:34;10.30;99.90
52889;DHT22;41413;52.770;6.892;2023-04-01T14:51:18;10.30;99.90
52889;DHT22;41413;52.770;6.892;2023-04-01T14:56:47;10.10;99.90
52889;DHT22;41413;52.770;6.892;2023-04-01T15:07:49;10.10;99.90
52889;DHT22;41413;52.770;6.892;2023-04-01T15:16:45;10.10;99.90
52889;DHT22;41413;52.770;6.892;2023-04-01T15:19:09;10.00;99.90
52889;DHT22;41413;52.770;6.892;2023-04-01T15:21:50;10.00;99.90
52889;DHT22;41413;52.770;6.892;2023-04-01T15:24:26;10.00;99.90
52889;DHT22;41413;52.770;6.892;2023-04-01T15:34:59;10.10;99.90
52889;DHT22;41413;52.770;6.892;2023-04-01T15:40:27;9.90;99.90
52889;DHT22;41413;52.770;6.892;2023-04-01T15:54:30;9.60;99.90
52889;DHT22;41413;52.770;6.892;2023-04-01T15:57:08;9.70;99.90
52889;DHT22;41413;52.770;6.892;2023-04-01T16:02:57;9.60;99.90
52889;DHT22;41413;52.770;6.892;2023-04-01T16:05:41;9.60;99.90
52889;DHT22;41413;52.770;6.892;2023-04-01T16:08:40;9.50;99.90
52889;DHT22;41413;52.770;6.892;2023-04-01T16:11:17;9.50;99.90
52889;DHT22;41413;52.770;6.892;2023-04-01T16:16:59;9.40;99.90
52889;DHT22;41413;52.770;6.892;2023-04-01T16:19:53;9.50;99.90
52889;DHT22;41413;52.770;6.892;2023-04-01T16:22:41;9.50;99.90
52889;DHT22;41413;52.770;6.892;2023-04-01T16:25:31;9.40;99.90
52889;DHT22;41413;52.770;6.892;2023-04-01T16:28:30;9.40;99.90
52889;DHT22;41413;52.770;6.892;2023-04-01T16:31:05;9.30;99.90
52889;DHT22;41413;52.770;6.892;2023-04-01T16:36:28;9.20;99.90
52889;DHT22;41413;52.770;6.892;2023-04-01T16:42:16;9.10;99.90
52889;DHT22;41413;52.770;6.892;2023-04-01T16:47:31;9.10;99.90
52889;DHT22;41413;52.770;6.892;2023-04-01T16:50:19;9.10;99.90
52889;DHT22;41413;52.770;6.892;2023-04-01T16:58:09;9.00;99.90
52889;DHT22;41413;52.770;6.892;2023-04-01T17:00:41;8.90;99.90
52889;DHT22;41413;52.770;6.892;2023-04-01T17:03:22;8.90;99.90
52889;DHT22;41413;52.770;6.892;2023-04-01T17:08:55;8.80;99.90
52889;DHT22;41413;52.770;6.892;2023-04-01T17:12:09;8.80;99.90
52889;DHT22;41413;52.770;6.892;2023-04-01T17:14:36;8.70;99.90
52889;DHT22;41413;52.770;6.892;2023-04-01T17:22:59;8.70;99.90
52889;DHT22;41413;52.770;6.892;2023-04-01T17:25:44;8.60;99.90
52889;DHT22;41413;52.770;6.892;2023-04-01T17:31:46;8.60;99.90
52889;DHT22;41413;52.770;6.892;2023-04-01T17:42:39;8.20;99.90
52889;DHT22;41413;52.770;6.892;2023-04-01T17:48:16;8.20;99.90
52889;DHT22;41413;52.770;6.892;2023-04-01T17:53:56;8.30;99.90
52889;DHT22;41413;52.770;6.892;2023-04-01T17:58:58;8.20;99.90
52889;DHT22;41413;52.770;6.892;2023-04-01T18:01:44;8.20;99.90
52889;DHT22;41413;52.770;6.892;2023-04-01T18:10:31;8.20;99.90
52889;DHT22;41413;52.770;6.892;2023-04-01T18:15:46;8.00;99.90
52889;DHT22;41413;52.770;6.892;2023-04-01T18:18:24;8.00;99.90
52889;DHT22;41413;52.770;6.892;2023-04-01T18:21:32;8.00;99.90
52889;DHT22;41413;52.770;6.892;2023-04-01T18:26:33;7.90;99.90
52889;DHT22;41413;52.770;6.892;2023-04-01T18:29:32;8.00;99.90
52889;DHT22;41413;52.770;6.892;2023-04-01T18:38:04;7.80;99.90
52889;DHT22;41413;52.770;6.892;2023-04-01T18:40:53;7.80;99.90
52889;DHT22;41413;52.770;6.892;2023-04-01T18:46:30;7.70;99.90
52889;DHT22;41413;52.770;6.892;2023-04-01T18:52:39;7.80;99.90
52889;DHT22;41413;52.770;6.892;2023-04-01T18:57:46;7.70;99.90
52889;DHT22;41413;52.770;6.892;2023-04-01T19:00:34;7.60;99.90
52889;DHT22;41413;52.770;6.892;2023-04-01T19:03:20;7.60;99.90
52889;DHT22;41413;52.770;6.892;2023-04-01T19:05:51;7.50;99.90
52889;DHT22;41413;52.770;6.892;2023-04-01T19:16:20;7.40;99.90
52889;DHT22;41413;52.770;6.892;2023-04-01T19:40:57;7.20;99.90
52889;DHT22;41413;52.770;6.892;2023-04-01T19:59:31;7.20;99.90
52889;DHT22;41413;52.770;6.892;2023-04-01T20:04:43;7.10;99.90
52889;DHT22;41413;52.770;6.892;2023-04-01T20:10:16;7.10;99.90
52889;DHT22;41413;52.770;6.892;2023-04-01T20:13:02;7.10;99.90
52889;DHT22;41413;52.770;6.892;2023-04-01T20:15:44;7.10;99.90
52889;DHT22;41413;52.770;6.892;2023-04-01T20:20:57;7.10;99.90
52889;DHT22;41413;52.770;6.892;2023-04-01T20:26:10;7.00;99.90
52889;DHT22;41413;52.770;6.892;2023-04-01T20:31:42;6.80;99.90
52889;DHT22;41413;52.770;6.892;2023-04-01T20:34:19;6.90;99.90
52889;DHT22;41413;52.770;6.892;2023-04-01T20:46:02;6.80;99.90
52889;DHT22;41413;52.770;6.892;2023-04-01T20:48:56;6.80;99.90
52889;DHT22;41413;52.770;6.892;2023-04-01T20:51:32;6.80;99.90
52889;DHT22;41413;52.770;6.892;2023-04-01T20:59:41;6.90;99.90
52889;DHT22;41413;52.770;6.892;2023-04-01T21:02:47;6.80;99.90
52889;DHT22;41413;52.770;6.892;2023-04-01T21:05:31;6.80;99.90
52889;DHT22;41413;52.770;6.892;2023-04-01T21:08:08;6.70;99.90
52889;DHT22;41413;52.770;6.892;2023-04-01T21:10:41;6.60;99.90
52889;DHT22;41413;52.770;6.892;2023-04-01T21:15:50;6.70;99.90
52889;DHT22;41413;52.770;6.892;2023-04-01T21:24:28;6.60;99.90
52889;DHT22;41413;52.770;6.892;2023-04-01T21:27:55;6.60;99.90
52889;DHT22;41413;52.770;6.892;2023-04-01T21:35:48;6.50;99.90
52889;DHT22;41413;52.770;6.892;2023-04-01T21:52:46;6.50;99.90
52889;DHT22;41413;52.770;6.892;2023-04-01T22:06:42;6.40;99.90
52889;DHT22;41413;52.770;6.892;2023-04-01T22:12:13;6.30;99.90
52889;DHT22;41413;52.770;6.892;2023-04-01T22:20:38;6.40;99.90
52889;DHT22;41413;52.770;6.892;2023-04-01T22:28:25;6.20;99.90
52889;DHT22;41413;52.770;6.892;2023-04-01T22:31:02;6.20;99.90
52889;DHT22;41413;52.770;6.892;2023-04-01T22:33:44;6.10;99.90
52889;DHT22;41413;52.770;6.892;2023-04-01T22:37:02;6.10;99.90
52889;DHT22;41413;52.770;6.892;2023-04-01T22:50:39;6.00;99.90
52889;DHT22;41413;52.770;6.892;2023-04-01T22:55:45;6.00;99.90
52889;DHT22;41413;52.770;6.892;2023-04-01T22:58:30;6.00;99.90
52889;DHT22;41413;52.770;6.892;2023-04-01T23:01:12;6.00;99.90
52889;DHT22;41413;52.770;6.892;2023-04-01T23:03:41;6.00;99.90
52889;DHT22;41413;52.770;6.892;2023-04-01T23:06:17;6.00;99.90
52889;DHT22;41413;52.770;6.892;2023-04-01T23:19:41;5.90;99.90
52889;DHT22;41413;52.770;6.892;2023-04-01T23:22:35;5.90;99.90
52889;DHT22;41413;52.770;6.892;2023-04-01T23:36:10;5.90;99.90
52889;DHT22;41413;52.770;6.892;2023-04-01T23:38:41;5.90;99.90
52889;DHT22;41413;52.770;6.892;2023-04-01T23:41:26;5.80;99.90
52889;DHT22;41413;52.770;6.892;2023-04-01T23:44:02;5.80;99.90
52889;DHT22;41413;52.770;6.892;2023-04-01T23:46:32;5.80;99.90
52889;DHT22;41413;52.770;6.892;2023-04-01T23:49:01;5.80;99.90
52889;DHT22;41413;52.770;6.892;2023-04-01T23:51:36;5.80;99.90
52889;DHT22;41413;52.770;6.892;2023-04-01T23:54:18;5.80;99.90
52889;DHT22;41413;52.770;6.892;2023-04-01T23:56:48;5.80;99.90
52889;DHT22;41413;52.770;6.892;2023-04-01T23:59:31;5.80;99.90
